Time;durP1;ratioP1;P1;durP2;ratioP2;P2;SDS_P1;SDS_P2;PMS_P1;PMS_P2;Temp;Humidity;BMP_temperature;BMP_pressure;BME280_temperature;BME280_humidity;BME280_pressure;Samples;Min_cycle;Max_cycle;Signal;HPM_P1;HPM_P2
2022/10/25 00:01:51;;;;;;;5.22;1.10;;;12.80;99.90;;;11.26;100.00;100289.44;5720992;23;20049;-81
2022/10/25 00:04:17;;;;;;;5.03;1.20;;;12.70;99.90;;;11.13;100.00;100279.53;5335798;23;20141;-83
2022/10/25 00:06:43;;;;;;;3.63;0.88;;;12.80;99.90;;;11.18;100.00;100276.94;4864066;29;20064;-82
2022/10/25 00:09:09;;;;;;;5.00;1.20;;;12.70;99.90;;;11.39;100.00;100299.38;4947170;24;20136;-79
2022/10/25 00:11:38;;;;;;;5.05;1.20;;;12.70;99.90;;;11.44;100.00;100301.41;4868447;29;20033;-81
2022/10/25 00:14:17;;;;;;;3.45;0.80;;;12.80;99.90;;;11.06;100.00;100235.94;5039479;23;21221;-82
2022/10/25 00:16:43;;;;;;;2.83;0.70;;;12.80;99.90;;;11.32;100.00;100269.41;4948048;23;20145;-81
2022/10/25 00:19:10;;;;;;;4.90;0.95;;;12.90;99.90;;;11.55;100.00;100289.69;4865594;29;20061;-79
2022/10/25 00:21:37;;;;;;;5.07;1.27;;;12.90;99.90;;;11.68;100.00;100305.06;4860528;29;20033;-81
2022/10/25 00:24:03;;;;;;;6.32;0.82;;;13.00;99.90;;;11.71;100.00;100307.31;4859139;29;20052;-81
2022/10/25 00:26:29;;;;;;;1.73;0.63;;;13.00;99.90;;;11.65;100.00;100303.59;4852083;29;20037;-80
2022/10/25 00:28:55;;;;;;;3.92;0.80;;;13.00;99.90;;;11.69;100.00;100314.91;4846728;29;20041;-79
2022/10/25 00:31:23;;;;;;;1.98;0.60;;;13.00;99.90;;;11.68;100.00;100302.31;4858051;29;20037;-79
2022/10/25 00:33:49;;;;;;;3.42;1.00;;;13.00;99.90;;;11.61;100.00;100307.88;4859697;29;20029;-81
2022/10/25 00:36:24;;;;;;;3.05;0.75;;;12.90;99.90;;;11.65;100.00;100306.34;4861771;29;20037;-80
2022/10/25 00:38:51;;;;;;;2.58;0.85;;;12.90;99.90;;;11.59;100.00;100304.53;4865686;29;20524;-79
2022/10/25 00:41:21;;;;;;;4.00;0.85;;;12.90;99.90;;;11.56;100.00;100310.47;4862255;29;20056;-80
2022/10/25 00:43:55;;;;;;;4.68;0.80;;;12.90;99.90;;;11.54;100.00;100318.06;4853782;29;20393;-80
2022/10/25 00:46:28;;;;;;;2.60;0.88;;;12.80;99.90;;;11.63;100.00;100315.84;4869271;29;20040;-78
2022/10/25 00:49:10;;;;;;;4.93;0.80;;;12.90;99.90;;;11.57;100.00;100328.53;4858189;29;20615;-80
2022/10/25 00:52:01;;;;;;;4.30;0.90;;;12.90;99.90;;;11.58;100.00;100324.72;4863398;29;20029;-80
2022/10/25 00:54:36;;;;;;;3.50;0.80;;;12.90;99.90;;;11.63;100.00;100327.59;4867046;29;20047;-81
2022/10/25 00:57:17;;;;;;;3.85;0.90;;;12.90;99.90;;;11.68;100.00;100332.38;4867708;29;20041;-77
2022/10/25 00:59:46;;;;;;;3.25;1.13;;;13.00;99.90;;;11.70;100.00;100313.03;4860427;29;20052;-78
2022/10/25 01:02:13;;;;;;;4.60;1.15;;;13.00;99.90;;;11.85;100.00;100334.47;4845253;29;20503;-79
2022/10/25 01:04:40;;;;;;;3.42;0.90;;;13.10;99.90;;;11.86;100.00;100336.94;4867618;29;20094;-78
2022/10/25 01:07:05;;;;;;;3.90;0.88;;;13.10;99.90;;;11.89;100.00;100327.47;4864933;29;20128;-79
2022/10/25 01:09:36;;;;;;;4.93;1.10;;;13.20;99.90;;;11.84;100.00;100316.41;4855773;29;20120;-80
2022/10/25 01:12:03;;;;;;;2.38;0.90;;;13.30;99.90;;;11.95;100.00;100331.97;4863547;29;20128;-82
2022/10/25 01:14:33;;;;;;;3.47;0.80;;;13.30;99.90;;;11.99;100.00;100341.38;4855700;29;20456;-78
2022/10/25 01:17:40;;;;;;;3.92;0.90;;;13.30;99.90;;;11.99;100.00;100324.97;4859478;29;20041;-77
2022/10/25 01:20:37;;;;;;;4.18;0.85;;;13.30;99.90;;;12.09;100.00;100340.84;4863309;29;20120;-78
2022/10/25 01:23:55;;;;;;;3.65;1.00;;;13.40;99.90;;;12.13;100.00;100341.22;4871651;29;20082;-78
2022/10/25 01:26:58;;;;;;;4.57;1.20;;;13.40;99.90;;;12.14;100.00;100340.97;4858746;29;20466;-75
2022/10/25 01:30:03;;;;;;;4.18;1.00;;;13.40;99.90;;;12.22;100.00;100348.84;4863588;29;20288;-75
2022/10/25 01:32:42;;;;;;;3.80;1.27;;;13.40;99.90;;;12.26;100.00;100343.72;4864149;29;20051;-77
2022/10/25 01:35:18;;;;;;;;;;;13.50;99.90;;;12.21;100.00;100338.97;4859543;29;20042;-81
2022/10/25 01:38:27;;;;;;;4.22;1.40;;;13.50;99.90;;;12.19;100.00;100340.28;4871360;29;20351;-78
2022/10/25 01:41:23;;;;;;;4.97;1.15;;;13.50;99.90;;;12.16;100.00;100349.78;4862513;29;20029;-79
2022/10/25 01:44:16;;;;;;;3.08;0.98;;;13.40;99.90;;;12.16;100.00;100343.47;4866498;29;20532;-79
2022/10/25 01:47:03;;;;;;;5.07;1.27;;;13.40;99.90;;;12.20;100.00;100344.69;4863291;29;20079;-79
2022/10/25 01:49:46;;;;;;;3.45;1.10;;;13.40;99.90;;;12.19;100.00;100332.88;4868925;29;20392;-79
2022/10/25 01:52:18;;;;;;;6.95;1.30;;;13.50;99.90;;;12.13;100.00;100333.84;4865054;29;20045;-81
2022/10/25 01:54:43;;;;;;;4.88;1.25;;;13.40;99.90;;;12.08;100.00;100328.25;4866661;29;20537;-78
2022/10/25 01:57:33;;;;;;;6.47;1.60;;;13.40;99.90;;;12.01;100.00;100335.72;4858226;29;20057;-79
2022/10/25 02:00:25;;;;;;;4.80;1.35;;;13.40;99.90;;;11.85;100.00;100332.56;4864296;29;20029;-79
2022/10/25 02:02:56;;;;;;;6.60;1.40;;;13.20;99.90;;;11.78;100.00;100329.91;4870354;29;20039;-78
2022/10/25 02:05:43;;;;;;;7.97;1.50;;;13.10;99.90;;;11.72;100.00;100340.97;4867559;29;20108;-78
2022/10/25 02:08:40;;;;;;;5.20;1.27;;;13.00;99.90;;;11.61;100.00;100337.09;4865022;29;20036;-80
2022/10/25 02:11:23;;;;;;;2.90;1.33;;;12.90;99.90;;;11.57;100.00;100339.47;4860924;29;20025;-77
2022/10/25 02:14:04;;;;;;;5.25;1.60;;;12.90;99.90;;;11.59;100.00;100351.00;4854512;29;20269;-77
2022/10/25 02:16:45;;;;;;;5.72;1.90;;;12.90;99.90;;;11.56;100.00;100343.25;4858937;29;20576;-78
2022/10/25 02:19:22;;;;;;;7.22;1.95;;;12.90;99.90;;;11.65;100.00;100339.13;4863142;29;20040;-80
2022/10/25 02:21:50;;;;;;;7.80;1.80;;;12.90;99.90;;;11.65;100.00;100343.78;4870625;29;20045;-82
2022/10/25 02:24:22;;;;;;;6.20;1.55;;;13.00;99.90;;;11.60;100.00;100339.00;4861876;29;20069;-79
2022/10/25 02:26:50;;;;;;;6.43;1.77;;;12.90;99.90;;;11.56;100.00;100335.06;4860161;29;20033;-79
2022/10/25 02:29:18;;;;;;;4.75;1.80;;;12.90;99.90;;;11.58;100.00;100345.78;4854950;29;20485;-81
2022/10/25 02:31:45;;;;;;;7.05;2.20;;;12.90;99.90;;;11.57;100.00;100334.00;4861225;29;20038;-78
2022/10/25 02:34:10;;;;;;;6.25;1.70;;;12.90;99.90;;;11.53;100.00;100335.53;4860783;29;20248;-79
2022/10/25 02:36:36;;;;;;;6.00;1.75;;;12.90;99.90;;;11.47;100.00;100334.53;4853011;29;20466;-80
2022/10/25 02:39:05;;;;;;;7.50;1.80;;;12.80;99.90;;;11.41;100.00;100331.91;4855610;29;20040;-79
2022/10/25 02:41:32;;;;;;;4.20;2.03;;;12.80;99.90;;;11.41;100.00;100334.66;4861346;29;20048;-78
2022/10/25 02:43:58;;;;;;;5.35;2.13;;;12.70;99.90;;;11.32;100.00;100334.94;4865289;29;21117;-79
2022/10/25 02:46:24;;;;;;;5.60;2.10;;;12.70;99.90;;;11.25;100.00;100328.75;4866815;29;20192;-80
2022/10/25 02:48:50;;;;;;;7.43;2.15;;;12.60;99.90;;;11.22;100.00;100332.75;4864318;29;20115;-77
2022/10/25 02:51:17;;;;;;;8.15;2.38;;;12.60;99.90;;;11.22;100.00;100340.94;4859121;29;20048;-78
2022/10/25 02:53:43;;;;;;;5.78;2.10;;;12.60;99.90;;;11.16;100.00;100333.69;4864267;29;20069;-79
2022/10/25 02:56:12;;;;;;;8.27;2.50;;;12.50;99.90;;;11.20;100.00;100339.53;4861700;29;20037;-79
2022/10/25 02:58:41;;;;;;;9.00;2.35;;;12.50;99.90;;;11.25;100.00;100334.19;4855262;29;20413;-79
2022/10/25 03:01:08;;;;;;;5.78;2.58;;;12.50;99.90;;;11.22;100.00;100338.22;4861439;29;20028;-79
2022/10/25 03:03:35;;;;;;;10.35;2.90;;;12.50;99.90;;;11.14;100.00;100329.50;4871407;29;20188;-79
2022/10/25 03:06:01;;;;;;;7.57;2.83;;;12.50;99.90;;;11.15;100.00;100325.72;4865452;29;20033;-79
2022/10/25 03:08:27;;;;;;;8.60;3.00;;;12.50;99.90;;;11.13;100.00;100328.69;4865367;29;20044;-78
2022/10/25 03:10:54;;;;;;;7.25;2.75;;;12.50;99.90;;;11.12;100.00;100323.44;4860040;29;20040;-78
2022/10/25 03:13:20;;;;;;;7.45;3.28;;;12.50;99.90;;;11.19;100.00;100340.59;4869717;29;20036;-78
2022/10/25 03:15:46;;;;;;;9.35;3.20;;;12.50;99.90;;;11.23;100.00;100347.25;4866240;29;20037;-79
2022/10/25 03:18:13;;;;;;;10.07;3.85;;;12.50;99.90;;;11.30;100.00;100339.81;4867832;29;20048;-78
2022/10/25 03:20:39;;;;;;;10.65;3.78;;;12.60;99.90;;;11.33;100.00;100341.25;4853725;29;20088;-79
2022/10/25 03:23:06;;;;;;;11.75;3.95;;;12.60;99.90;;;11.37;100.00;100347.94;4860895;29;20127;-79
2022/10/25 03:25:32;;;;;;;8.80;3.83;;;12.70;99.90;;;11.34;100.00;100338.28;4863775;29;20037;-83
2022/10/25 03:28:01;;;;;;;12.93;4.10;;;12.70;99.90;;;11.35;100.00;100336.41;4870416;29;20033;-76
2022/10/25 03:30:29;;;;;;;11.68;4.25;;;12.70;99.90;;;11.39;100.00;100347.69;4860507;29;20032;-79
2022/10/25 03:32:56;;;;;;;7.90;4.20;;;12.70;99.90;;;11.44;100.00;100356.84;4858309;29;20029;-79
2022/10/25 03:35:23;;;;;;;10.40;4.80;;;12.80;99.90;;;11.47;100.00;100363.78;4867438;29;20405;-80
2022/10/25 03:37:50;;;;;;;13.65;5.20;;;12.80;99.90;;;11.48;100.00;100363.53;4864105;29;20637;-82
2022/10/25 03:40:16;;;;;;;10.00;4.87;;;12.80;99.90;;;11.49;100.00;100358.91;4869081;29;20229;-77
2022/10/25 03:42:42;;;;;;;9.68;5.45;;;12.80;99.90;;;11.53;100.00;100362.84;4868753;29;20040;-77
2022/10/25 03:45:09;;;;;;;12.27;5.25;;;12.80;99.90;;;11.52;100.00;100361.19;4857632;29;20037;-79
2022/10/25 03:47:35;;;;;;;13.33;5.70;;;12.90;99.90;;;11.43;100.00;100351.66;4868121;29;20051;-78
2022/10/25 03:50:01;;;;;;;11.48;5.43;;;12.90;99.90;;;11.52;100.00;100367.47;4862634;29;20497;-78
2022/10/25 03:52:26;;;;;;;10.73;5.15;;;12.90;99.90;;;11.43;100.00;100354.38;4862880;29;20100;-78
2022/10/25 03:54:52;;;;;;;13.00;5.30;;;12.90;99.90;;;11.55;100.00;100374.38;4865656;29;20040;-78
2022/10/25 03:57:18;;;;;;;13.52;5.07;;;12.90;99.90;;;11.49;100.00;100369.84;4866747;29;20501;-78
2022/10/25 03:59:44;;;;;;;13.75;5.30;;;12.90;99.90;;;11.49;100.00;100365.19;4869184;29;20088;-79
2022/10/25 04:02:11;;;;;;;11.32;5.40;;;12.90;99.90;;;11.51;100.00;100367.72;4849850;29;20037;-79
2022/10/25 04:04:37;;;;;;;11.55;5.30;;;12.90;99.90;;;11.53;100.00;100371.03;4864850;29;20060;-79
2022/10/25 04:07:03;;;;;;;10.05;4.50;;;12.80;99.90;;;11.54;100.00;100369.97;4862114;29;20033;-80
2022/10/25 04:09:29;;;;;;;10.70;5.25;;;12.90;99.90;;;11.47;100.00;100374.69;4864823;29;20062;-79
2022/10/25 04:11:55;;;;;;;8.07;4.53;;;12.80;99.90;;;11.50;100.00;100374.22;4868872;29;20025;-79
2022/10/25 04:14:22;;;;;;;9.63;5.50;;;12.90;99.90;;;11.57;100.00;100379.63;4870062;29;20089;-79
2022/10/25 04:16:47;;;;;;;10.20;5.55;;;12.90;99.90;;;11.52;100.00;100385.75;4868727;29;20041;-80
2022/10/25 04:19:13;;;;;;;12.98;4.82;;;12.90;99.90;;;11.51;100.00;100384.91;4861557;29;20353;-79
2022/10/25 04:21:40;;;;;;;14.05;5.35;;;12.90;99.90;;;11.49;100.00;100383.50;4866701;29;20044;-78
2022/10/25 04:24:06;;;;;;;9.40;4.95;;;12.80;99.90;;;11.53;100.00;100381.97;4856586;29;20040;-78
2022/10/25 04:26:35;;;;;;;12.95;5.63;;;12.90;99.90;;;11.51;100.00;100384.91;4852516;29;20038;-79
2022/10/25 04:29:03;;;;;;;15.35;5.10;;;12.90;99.90;;;11.49;100.00;100386.22;4865148;29;20081;-80
2022/10/25 04:31:29;;;;;;;;;;;12.80;99.90;;;11.48;100.00;100384.56;4864668;29;20028;-79
2022/10/25 04:33:55;;;;;;;15.60;5.22;;;12.90;99.90;;;11.47;100.00;100377.44;4862649;29;19916;-78
2022/10/25 04:36:22;;;;;;;10.93;5.20;;;12.80;99.90;;;11.47;100.00;100380.97;4861315;29;20033;-78
2022/10/25 04:38:52;;;;;;;12.52;5.03;;;12.80;99.90;;;11.49;100.00;100392.50;4859757;29;20064;-78
2022/10/25 04:41:19;;;;;;;14.30;6.10;;;12.80;99.90;;;11.40;100.00;100382.97;4862758;29;20033;-79
2022/10/25 04:43:47;;;;;;;16.27;6.40;;;12.80;99.90;;;11.44;100.00;100394.28;4870975;29;20147;-78
2022/10/25 04:46:13;;;;;;;14.88;6.57;;;12.70;99.90;;;11.45;100.00;100394.03;4871045;29;20056;-78
2022/10/25 04:48:41;;;;;;;13.98;6.80;;;12.80;99.90;;;11.49;100.00;100397.16;4854375;29;20193;-78
2022/10/25 04:51:09;;;;;;;13.05;6.82;;;12.80;99.90;;;11.50;100.00;100394.19;4859842;29;20039;-79
2022/10/25 04:53:35;;;;;;;13.35;6.80;;;12.80;99.90;;;11.54;100.00;100400.03;4850399;29;20056;-78
2022/10/25 04:56:04;;;;;;;14.85;6.65;;;12.90;99.90;;;11.55;100.00;100407.16;4876525;29;20152;-79
2022/10/25 04:58:31;;;;;;;19.85;7.13;;;12.90;99.90;;;11.56;100.00;100408.81;4867022;29;20482;-79
2022/10/25 05:01:06;;;;;;;13.43;6.80;;;12.90;99.90;;;11.61;100.00;100406.22;4857667;29;20052;-79
2022/10/25 05:03:33;;;;;;;13.57;6.45;;;12.90;99.90;;;11.63;100.00;100406.00;4857086;29;20041;-78
2022/10/25 05:06:14;;;;;;;17.58;7.18;;;12.90;99.90;;;11.66;100.00;100409.09;4859776;29;20064;-78
2022/10/25 05:08:46;;;;;;;11.98;6.85;;;13.00;99.90;;;11.66;100.00;100409.09;4864731;29;20037;-77
2022/10/25 05:11:15;;;;;;;13.38;6.78;;;13.00;99.90;;;11.70;100.00;100425.06;4867661;29;20033;-78
2022/10/25 05:13:43;;;;;;;10.27;6.63;;;13.00;99.90;;;11.65;100.00;100404.72;4842850;29;20603;-77
2022/10/25 05:16:16;;;;;;;16.15;6.57;;;13.10;99.90;;;11.80;100.00;100426.19;4841263;29;20069;-76
2022/10/25 05:18:44;;;;;;;13.48;6.60;;;13.20;99.90;;;11.79;100.00;100419.03;4852811;29;20378;-75
2022/10/25 05:21:11;;;;;;;12.75;6.22;;;13.20;99.90;;;11.80;100.00;100425.34;4861169;29;20045;-77
2022/10/25 05:23:37;;;;;;;12.53;5.70;;;13.20;99.90;;;11.86;100.00;100434.53;4857761;29;20072;-76
2022/10/25 05:26:17;;;;;;;8.85;5.20;;;13.20;99.90;;;11.83;100.00;100430.34;4864899;29;20045;-77
2022/10/25 05:28:45;;;;;;;10.88;6.07;;;13.20;99.90;;;11.81;100.00;100437.94;4855040;29;20086;-76
2022/10/25 05:31:15;;;;;;;13.57;6.22;;;13.20;99.90;;;11.82;100.00;100434.16;4860773;29;20106;-75
2022/10/25 05:33:45;;;;;;;12.63;5.78;;;13.20;99.90;;;11.86;100.00;100435.34;4864991;29;20370;-75
2022/10/25 05:36:13;;;;;;;10.80;6.20;;;13.20;99.90;;;11.87;100.00;100445.22;4856632;29;20119;-77
2022/10/25 05:38:39;;;;;;;9.95;6.30;;;13.20;99.90;;;11.83;100.00;100438.53;4864764;29;20516;-78
2022/10/25 05:41:07;;;;;;;10.73;5.85;;;13.20;99.90;;;11.86;100.00;100449.00;4866880;29;20021;-79
2022/10/25 05:43:33;;;;;;;9.73;6.05;;;13.20;99.90;;;11.82;100.00;100445.06;4861856;29;20041;-79
2022/10/25 05:46:17;;;;;;;12.00;6.40;;;13.20;99.90;;;11.86;100.00;100451.75;4852626;29;20041;-81
2022/10/25 05:48:44;;;;;;;11.98;6.40;;;13.20;99.90;;;11.70;100.00;100436.00;4850761;29;20029;-80
2022/10/25 05:51:10;;;;;;;10.07;5.38;;;13.20;99.90;;;11.85;100.00;100454.72;4859624;29;20631;-81
2022/10/25 05:53:35;;;;;;;11.70;5.75;;;13.20;99.90;;;11.83;100.00;100452.22;4869277;29;20028;-80
2022/10/25 05:56:01;;;;;;;11.43;5.85;;;13.20;99.90;;;11.84;100.00;100453.88;4864668;29;20033;-81
2022/10/25 05:58:28;;;;;;;11.13;5.35;;;13.20;99.90;;;11.84;100.00;100458.53;4849944;29;20033;-79
2022/10/25 06:01:01;;;;;;;12.18;5.65;;;13.20;99.90;;;11.83;100.00;100463.16;4850463;29;20450;-82
2022/10/25 06:03:27;;;;;;;9.13;5.72;;;13.20;99.90;;;11.76;100.00;100452.28;4852422;29;20395;-82
2022/10/25 06:05:53;;;;;;;9.90;5.63;;;13.20;99.90;;;11.79;100.00;100462.75;4853030;29;20041;-81
2022/10/25 06:08:18;;;;;;;12.05;5.45;;;13.20;99.90;;;11.85;100.00;100480.16;4855878;29;20748;-79
2022/10/25 06:10:44;;;;;;;9.20;5.78;;;13.20;99.90;;;11.85;100.00;100485.63;4853896;29;20317;-80
2022/10/25 06:13:10;;;;;;;11.60;5.18;;;13.20;99.90;;;11.88;100.00;100487.88;4849250;29;20032;-81
2022/10/25 06:15:38;;;;;;;7.85;4.75;;;13.20;99.90;;;11.84;100.00;100483.13;4852225;29;20060;-81
2022/10/25 06:18:04;;;;;;;8.60;5.70;;;13.20;99.90;;;11.88;100.00;100476.94;4851890;29;20558;-78
2022/10/25 06:20:33;;;;;;;12.90;5.55;;;13.20;99.90;;;11.94;100.00;100487.00;4848976;29;20132;-81
2022/10/25 06:22:59;;;;;;;11.35;5.65;;;13.20;99.90;;;11.99;100.00;100499.94;4845165;29;20029;-77
2022/10/25 06:25:24;;;;;;;13.77;5.65;;;13.30;99.90;;;11.97;100.00;100504.00;4848796;29;20045;-80
2022/10/25 06:27:50;;;;;;;8.90;5.00;;;13.30;99.90;;;11.94;100.00;100508.84;4848550;29;20330;-79
2022/10/25 06:30:16;;;;;;;10.23;5.13;;;13.20;99.90;;;11.81;100.00;100495.34;4861843;29;20025;-78
2022/10/25 06:32:42;;;;;;;13.52;5.20;;;13.20;99.90;;;11.93;100.00;100507.19;4853817;29;20103;-78
2022/10/25 06:35:08;;;;;;;9.68;5.55;;;13.20;99.90;;;11.77;100.00;100494.13;4841018;29;20034;-78
2022/10/25 06:37:33;;;;;;;10.43;5.53;;;13.20;99.90;;;11.88;100.00;100509.75;4848276;29;20042;-79
2022/10/25 06:39:59;;;;;;;9.40;5.88;;;13.20;99.90;;;11.90;100.00;100506.81;4858273;29;20089;-77
2022/10/25 06:42:25;;;;;;;8.52;5.55;;;13.20;99.90;;;11.89;100.00;100516.88;4857651;29;20515;-79
2022/10/25 06:44:51;;;;;;;7.50;5.10;;;13.20;99.90;;;11.84;100.00;100505.81;4853872;29;20060;-79
2022/10/25 06:47:16;;;;;;;13.82;5.25;;;13.20;99.90;;;11.88;100.00;100522.59;4857166;29;20045;-79
2022/10/25 06:49:42;;;;;;;14.73;6.22;;;13.20;99.90;;;11.88;100.00;100526.16;4859440;29;20029;-79
2022/10/25 06:52:08;;;;;;;9.85;4.65;;;13.20;99.90;;;11.86;100.00;100528.28;4859441;29;20404;-78
2022/10/25 06:54:34;;;;;;;11.43;5.25;;;13.20;99.90;;;11.89;100.00;100527.81;4858981;29;20522;-77
2022/10/25 06:57:00;;;;;;;10.60;5.65;;;13.20;99.90;;;11.58;100.00;100482.38;4861700;29;20795;-80
2022/10/25 06:59:26;;;;;;;10.45;5.38;;;13.20;99.90;;;11.88;100.00;100531.63;4862148;29;20124;-79
2022/10/25 07:01:53;;;;;;;10.80;5.35;;;13.30;99.90;;;11.89;100.00;100533.28;4865519;29;20511;-78
2022/10/25 07:04:20;;;;;;;12.55;5.40;;;13.20;99.90;;;11.83;100.00;100523.28;4843521;29;20033;-79
2022/10/25 07:06:45;;;;;;;9.90;5.35;;;13.30;99.90;;;11.88;100.00;100537.09;4863069;29;20041;-79
2022/10/25 07:09:12;;;;;;;13.10;5.68;;;13.20;99.90;;;11.94;100.00;100547.13;4857712;29;20086;-80
2022/10/25 07:11:38;;;;;;;9.98;5.72;;;13.20;99.90;;;11.98;100.00;100561.16;4855653;29;20052;-79
2022/10/25 07:14:04;;;;;;;10.43;5.07;;;13.20;99.90;;;11.94;100.00;100549.00;4865363;29;20086;-78
2022/10/25 07:16:31;;;;;;;11.45;5.15;;;13.40;99.90;;;11.98;100.00;100557.59;4828426;29;20049;-79
2022/10/25 07:19:02;;;;;;;11.13;5.10;;;13.30;99.90;;;12.00;100.00;100558.22;4854207;29;20100;-79
2022/10/25 07:21:30;;;;;;;12.65;5.63;;;13.30;99.90;;;12.04;100.00;100570.38;4854100;29;20128;-76
2022/10/25 07:23:56;;;;;;;12.60;5.20;;;13.30;99.90;;;12.07;100.00;100561.72;4857430;29;20034;-78
2022/10/25 07:26:31;;;;;;;9.82;5.30;;;13.40;99.90;;;12.13;100.00;100568.19;4853564;29;20029;-79
2022/10/25 07:28:59;;;;;;;8.60;5.10;;;13.40;99.90;;;12.16;100.00;100574.00;4851083;29;20065;-77
2022/10/25 07:31:34;;;;;;;14.63;5.20;;;13.50;99.90;;;12.24;100.00;100575.59;4858679;29;20416;-77
2022/10/25 07:34:02;;;;;;;10.32;5.03;;;13.50;99.90;;;12.28;100.00;100581.47;4856473;29;20097;-77
2022/10/25 07:36:29;;;;;;;13.98;5.00;;;13.50;99.90;;;12.27;100.00;100577.06;4855057;29;20492;-77
2022/10/25 07:38:55;;;;;;;8.68;4.95;;;13.60;99.90;;;12.30;100.00;100587.53;4858996;29;20048;-78
2022/10/25 07:41:23;;;;;;;10.85;4.90;;;13.60;99.90;;;12.33;100.00;100590.66;4861749;29;20049;-79
2022/10/25 07:43:48;;;;;;;12.90;5.07;;;13.70;99.90;;;12.39;100.00;100599.81;4857696;29;20068;-78
2022/10/25 07:46:14;;;;;;;13.60;4.80;;;13.70;99.90;;;12.38;100.00;100595.41;4851457;29;20135;-77
2022/10/25 07:48:40;;;;;;;11.00;4.47;;;13.70;99.90;;;12.45;100.00;100593.41;4855098;29;20535;-77
2022/10/25 07:51:15;;;;;;;9.27;4.70;;;13.80;99.90;;;12.52;100.00;100607.88;4859776;29;20045;-77
2022/10/25 07:53:41;;;;;;;13.38;5.38;;;13.80;99.90;;;12.48;100.00;100595.72;4860598;29;20073;-78
2022/10/25 07:56:17;;;;;;;11.30;5.10;;;13.80;99.90;;;12.62;100.00;100606.47;4865070;29;20248;-78
2022/10/25 07:58:42;;;;;;;11.82;4.60;;;13.90;99.90;;;12.61;100.00;100604.81;4858572;29;20045;-79
2022/10/25 08:01:10;;;;;;;13.88;4.80;;;14.00;99.90;;;12.71;100.00;100607.81;4859090;29;20082;-77
2022/10/25 08:03:36;;;;;;;10.60;4.60;;;14.00;99.90;;;12.75;100.00;100603.56;4860564;29;20624;-77
2022/10/25 08:06:03;;;;;;;10.60;4.25;;;14.10;99.90;;;12.86;100.00;100609.31;4841455;29;20127;-77
2022/10/25 08:08:29;;;;;;;9.40;4.60;;;14.20;99.90;;;12.97;100.00;100603.03;4863115;29;20481;-79
2022/10/25 08:10:56;;;;;;;8.35;4.30;;;14.30;99.90;;;13.13;100.00;100622.59;4858830;29;20480;-75
2022/10/25 08:13:22;;;;;;;9.40;3.88;;;14.40;99.90;;;13.15;100.00;100604.88;4863469;29;20040;-77
2022/10/25 08:15:54;;;;;;;12.20;4.50;;;14.50;99.90;;;13.37;100.00;100629.78;4839463;29;20565;-78
2022/10/25 08:18:22;;;;;;;12.25;4.20;;;14.60;99.90;;;13.48;100.00;100624.59;4852400;29;20043;-76
2022/10/25 08:20:48;;;;;;;11.63;4.38;;;14.70;99.90;;;13.60;100.00;100624.59;4855762;29;20033;-78
2022/10/25 08:23:14;;;;;;;10.07;4.07;;;14.80;99.90;;;13.68;100.00;100623.41;4850964;29;20064;-78
2022/10/25 08:25:41;;;;;;;8.48;4.25;;;15.00;99.90;;;13.95;100.00;100632.81;4852996;29;20044;-77
2022/10/25 08:28:06;;;;;;;9.85;4.03;;;15.20;99.90;;;14.20;100.00;100637.19;4850163;29;20116;-78
2022/10/25 08:30:32;;;;;;;11.98;3.90;;;15.40;99.90;;;14.37;100.00;100625.47;4851552;29;20565;-76
2022/10/25 08:32:58;;;;;;;7.60;3.88;;;15.60;99.90;;;14.41;100.00;100615.69;4845683;29;20089;-78
2022/10/25 08:35:24;;;;;;;10.27;3.92;;;15.70;99.90;;;14.44;100.00;100631.66;4852306;29;20056;-78
2022/10/25 08:37:49;;;;;;;12.50;4.70;;;15.80;99.90;;;14.33;100.00;100618.81;4857675;29;20036;-79
2022/10/25 08:40:28;;;;;;;9.60;3.75;;;15.70;99.90;;;14.55;100.00;100637.34;4858473;29;20097;-78
2022/10/25 08:43:16;;;;;;;9.82;3.83;;;15.90;99.90;;;14.70;100.00;100642.31;4862930;29;20041;-75
2022/10/25 08:46:03;;;;;;;11.45;4.50;;;15.90;99.90;;;14.89;100.00;100637.50;4853271;29;20390;-78
2022/10/25 08:48:37;;;;;;;8.57;3.95;;;16.20;99.90;;;15.23;100.00;100637.53;4861920;29;20041;-77
2022/10/25 08:51:13;;;;;;;9.48;4.00;;;16.50;99.90;;;15.31;100.00;100648.13;4851493;29;20030;-77
2022/10/25 08:53:47;;;;;;;5.35;3.30;;;16.70;99.90;;;15.28;100.00;100643.13;4846376;29;20044;-73
2022/10/25 08:56:17;;;;;;;8.82;3.67;;;16.70;99.90;;;15.50;100.00;100653.38;4846818;29;20472;-78
2022/10/25 08:58:52;;;;;;;8.30;3.70;;;16.80;99.90;;;15.64;97.17;100662.13;4847796;29;20553;-76
2022/10/25 09:01:37;;;;;;;7.72;3.03;;;16.90;99.90;;;15.51;98.06;100661.38;4847358;29;20033;-78
2022/10/25 09:04:05;;;;;;;10.20;3.28;;;16.90;99.90;;;15.32;96.98;100671.78;4855659;29;20040;-77
2022/10/25 09:06:56;;;;;;;6.30;2.65;;;16.70;99.90;;;15.00;96.52;100677.81;4861830;29;20508;-74
2022/10/25 09:10:05;;;;;;;11.93;3.50;;;16.50;99.90;;;14.85;99.47;100674.75;4846956;29;20060;-75
2022/10/25 09:12:55;;;;;;;11.65;3.85;;;16.30;99.90;;;14.83;100.00;100680.50;4850404;29;20040;-75
2022/10/25 09:16:02;;;;;;;11.63;3.53;;;16.10;99.90;;;14.75;99.50;100672.66;4849971;29;20585;-75
2022/10/25 09:18:58;;;;;;;7.07;2.70;;;16.10;99.90;;;14.62;99.29;100676.50;4839082;29;20097;-75
2022/10/25 09:21:37;;;;;;;5.43;2.90;;;15.90;99.90;;;14.55;100.00;100675.78;4827658;29;20434;-76
2022/10/25 09:24:40;;;;;;;7.65;2.92;;;15.90;99.90;;;14.73;100.00;100689.38;4827954;29;20490;-74
2022/10/25 09:27:28;;;;;;;10.45;3.10;;;16.00;99.90;;;14.94;98.42;100687.03;4830073;29;20038;-75
2022/10/25 09:30:05;;;;;;;8.98;2.50;;;16.10;99.90;;;15.36;95.07;100685.88;4839927;29;20321;-76
2022/10/25 09:32:53;;;;;;;9.40;3.33;;;16.50;99.90;;;15.41;92.93;100677.69;4849122;29;20564;-78
2022/10/25 09:35:59;;;;;;;8.80;3.42;;;16.80;99.90;;;15.35;92.07;100697.94;4846171;29;20042;-75
2022/10/25 09:38:39;;;;;;;7.40;3.05;;;16.80;99.90;;;15.53;93.63;100692.22;4833451;29;20106;-77
2022/10/25 09:41:15;;;;;;;6.95;3.25;;;16.80;99.90;;;15.54;89.37;100687.53;4828079;29;20097;-76
2022/10/25 09:44:11;;;;;;;6.35;2.95;;;17.10;99.90;;;15.93;88.42;100701.41;4827233;29;20077;-77
2022/10/25 09:46:42;;;;;;;8.18;2.70;;;17.30;99.90;;;16.77;83.02;100701.44;4843365;29;20045;-75
2022/10/25 09:49:30;;;;;;;5.95;2.25;;;18.00;99.90;;;17.79;74.77;100705.50;4835989;29;20482;-74
2022/10/25 09:52:40;;;;;;;8.90;2.50;;;18.90;99.90;;;18.24;72.72;100708.03;4829376;29;20087;-77
2022/10/25 09:55:49;;;;;;;6.23;2.20;;;19.60;99.90;;;17.09;76.44;100709.00;4829861;29;20286;-74
2022/10/25 09:58:39;;;;;;;6.05;2.10;;;18.90;99.90;;;16.46;79.93;100712.06;4830313;29;20296;-77
2022/10/25 10:01:15;;;;;;;6.82;2.22;;;18.20;99.90;;;16.13;82.25;100722.03;4840384;29;20037;-79
2022/10/25 10:03:41;;;;;;;7.78;2.50;;;17.70;99.90;;;15.72;84.72;100711.22;4840837;29;20045;-75
2022/10/25 10:06:27;;;;;;;6.43;1.98;;;17.20;99.90;;;15.47;86.18;100711.63;4840341;29;20165;-75
2022/10/25 10:09:01;;;;;;;8.43;2.25;;;16.90;99.90;;;15.65;84.25;100705.91;4836238;29;20026;-74
2022/10/25 10:11:28;;;;;;;4.10;1.92;;;16.90;99.90;;;15.80;82.66;100712.72;4827748;29;20038;-75
2022/10/25 10:14:09;;;;;;;6.53;2.30;;;17.00;99.90;;;15.76;81.49;100726.13;4831517;29;20493;-75
2022/10/25 10:16:50;;;;;;;5.70;1.77;;;17.10;99.90;;;16.06;79.51;100732.41;4853623;29;20230;-74
2022/10/25 10:19:23;;;;;;;5.22;2.00;;;17.30;99.90;;;16.01;79.24;100729.59;4854103;29;20064;-74
2022/10/25 10:22:00;;;;;;;6.20;2.10;;;17.40;99.90;;;16.29;78.51;100722.28;4851481;29;20093;-75
2022/10/25 10:24:33;;;;;;;4.15;1.63;;;17.50;99.90;;;16.31;78.04;100729.22;4847808;29;20045;-75
2022/10/25 10:27:20;;;;;;;8.73;1.83;;;17.70;99.90;;;16.88;76.71;100723.59;4849817;29;20033;-76